createdAt,value
2018-12-04T00:00:47.640Z,86.85
2018-12-04T00:01:47.715Z,86.13
2018-12-04T00:02:47.595Z,87.05
2018-12-04T00:03:47.586Z,86.54
2018-12-04T00:04:47.596Z,86.74
2018-12-04T00:05:47.556Z,86.95
2018-12-04T00:06:47.591Z,86.43
2018-12-04T00:07:47.544Z,86.33
2018-12-04T00:08:47.545Z,86.33
2018-12-04T00:09:47.541Z,86.02
2018-12-04T00:10:47.503Z,86.74
2018-12-04T00:11:47.541Z,85.78
2018-12-04T00:12:47.516Z,86.43
2018-12-04T00:13:47.490Z,86.13
2018-12-04T00:14:47.496Z,87.26
2018-12-04T00:15:47.496Z,86.64
2018-12-04T00:16:47.482Z,86.95
2018-12-04T00:17:47.478Z,87.05
2018-12-04T00:18:47.465Z,86.95
2018-12-04T00:19:47.494Z,86.85
2018-12-04T00:20:47.425Z,87.05
2018-12-04T00:21:47.420Z,86.85
2018-12-04T00:22:47.417Z,86.43
2018-12-04T00:23:47.363Z,86.85
2018-12-04T00:24:47.383Z,86.40
2018-12-04T00:25:47.397Z,87.01
2018-12-04T00:26:47.365Z,86.74
2018-12-04T00:27:47.356Z,86.23
2018-12-04T00:28:47.317Z,86.85
2018-12-04T00:29:47.291Z,87.26
2018-12-04T00:30:47.325Z,86.91
2018-12-04T00:31:47.300Z,87.22
2018-12-04T00:32:47.288Z,86.40
2018-12-04T00:33:47.265Z,87.01
2018-12-04T00:34:47.236Z,86.80
2018-12-04T00:35:47.221Z,87.01
2018-12-04T00:36:47.294Z,87.05
2018-12-04T00:37:47.265Z,86.80
2018-12-04T00:38:47.196Z,86.80
2018-12-04T00:39:47.213Z,86.91
2018-12-04T00:40:47.165Z,86.64
2018-12-04T00:41:47.154Z,86.43
2018-12-04T00:42:47.155Z,86.85
2018-12-04T00:43:47.177Z,87.05
2018-12-04T00:44:47.122Z,86.74
2018-12-04T00:45:47.110Z,86.74
2018-12-04T00:46:47.112Z,86.85
2018-12-04T00:47:47.088Z,86.54
2018-12-04T00:48:47.073Z,87.15
2018-12-04T00:49:47.132Z,86.95
2018-12-04T00:50:47.083Z,86.64
2018-12-04T00:51:47.079Z,87.46
2018-12-04T00:52:47.062Z,86.95
2018-12-04T00:53:47.027Z,87.36
2018-12-04T00:54:47.010Z,87.26
2018-12-04T00:55:47.026Z,86.54
2018-12-04T00:56:47.022Z,86.33
2018-12-04T00:57:46.999Z,86.95
2018-12-04T00:58:46.970Z,87.12
2018-12-04T00:59:47.037Z,87.15
2018-12-04T01:00:46.948Z,86.64
2018-12-04T01:01:46.934Z,86.70
2018-12-04T01:02:46.932Z,86.60
2018-12-04T01:03:46.928Z,86.80
2018-12-04T01:04:46.940Z,86.95
2018-12-04T01:05:46.900Z,86.91
2018-12-04T01:06:46.882Z,87.01
2018-12-04T01:07:46.916Z,86.50
2018-12-04T01:08:46.848Z,86.64
2018-12-04T01:09:46.839Z,86.85
2018-12-04T01:10:46.826Z,87.36
2018-12-04T01:11:46.841Z,87.22
2018-12-04T01:12:46.849Z,86.85
2018-12-04T01:13:46.794Z,87.22
2018-12-04T01:14:46.803Z,86.70
2018-12-04T01:15:46.846Z,86.80
2018-12-04T01:16:46.779Z,86.40
2018-12-04T01:17:46.761Z,86.19
2018-12-04T01:18:46.743Z,86.80
2018-12-04T01:19:46.764Z,87.01
2018-12-04T01:20:46.724Z,86.43
2018-12-04T01:21:46.710Z,87.26
2018-12-04T01:22:46.706Z,87.15
2018-12-04T01:23:46.680Z,87.36
2018-12-04T01:24:46.676Z,86.95
2018-12-04T01:25:46.704Z,86.02
2018-12-04T01:26:46.647Z,86.74
2018-12-04T01:27:46.651Z,87.26
2018-12-04T01:28:46.630Z,86.74
2018-12-04T01:29:46.637Z,87.15
2018-12-04T01:30:46.630Z,86.95
2018-12-04T01:31:46.637Z,85.71
2018-12-04T01:32:46.599Z,85.82
2018-12-04T01:33:46.622Z,85.71
2018-12-04T01:34:46.597Z,86.74
2018-12-04T01:35:46.548Z,86.43
2018-12-04T01:36:46.540Z,86.54
2018-12-04T01:37:46.850Z,85.41
2018-12-04T01:38:46.541Z,85.41
2018-12-04T01:39:46.511Z,85.71
2018-12-04T01:40:46.486Z,85.51
2018-12-04T01:41:46.510Z,85.61
2018-12-04T01:42:46.463Z,85.51
2018-12-04T01:43:46.481Z,86.13
2018-12-04T01:44:46.442Z,86.33
2018-12-04T01:45:46.459Z,86.43
2018-12-04T01:46:46.456Z,86.43
2018-12-04T01:47:46.463Z,86.43
2018-12-04T01:48:46.405Z,86.43
2018-12-04T01:49:46.439Z,86.13
2018-12-04T01:50:46.378Z,86.74
2018-12-04T01:51:46.365Z,86.64
2018-12-04T01:52:46.405Z,86.54
2018-12-04T01:53:46.356Z,86.54
2018-12-04T01:54:46.359Z,86.64
2018-12-04T01:55:46.348Z,86.64
2018-12-04T01:56:46.337Z,86.85
2018-12-04T01:57:46.351Z,86.43
2018-12-04T01:58:46.331Z,87.36
2018-12-04T01:59:46.329Z,87.46
2018-12-04T02:00:46.297Z,87.26
2018-12-04T02:01:46.290Z,86.74
2018-12-04T02:02:46.243Z,86.85
2018-12-04T02:03:47.074Z,86.85
2018-12-04T02:04:46.243Z,86.60
2018-12-04T02:05:46.245Z,86.19
2018-12-04T02:06:46.224Z,86.91
2018-12-04T02:07:46.292Z,86.80
2018-12-04T02:08:46.181Z,86.29
2018-12-04T02:09:46.189Z,86.29
2018-12-04T02:10:46.185Z,85.98
2018-12-04T02:11:46.141Z,85.88
2018-12-04T02:12:46.166Z,85.78
2018-12-04T02:13:46.174Z,86.08
2018-12-04T02:14:46.107Z,85.78
2018-12-04T02:15:46.124Z,85.26
2018-12-04T02:16:46.082Z,86.08
2018-12-04T02:17:46.098Z,86.40
2018-12-04T02:18:46.068Z,85.57
2018-12-04T02:19:46.078Z,85.26
2018-12-04T02:20:46.073Z,85.36
2018-12-04T02:21:46.054Z,85.36
2018-12-04T02:22:46.020Z,85.22
2018-12-04T02:23:46.281Z,85.57
2018-12-04T02:24:45.992Z,85.47
2018-12-04T02:25:46.006Z,85.26
2018-12-04T02:26:45.981Z,85.47
2018-12-04T02:27:45.978Z,85.36
2018-12-04T02:28:45.947Z,85.68
2018-12-04T02:29:45.984Z,85.47
2018-12-04T02:30:45.973Z,85.26
2018-12-04T02:31:45.938Z,85.26
2018-12-04T02:32:45.928Z,85.36
2018-12-04T02:33:45.905Z,85.88
2018-12-04T02:34:45.935Z,85.88
2018-12-04T02:35:45.873Z,85.68
2018-12-04T02:36:45.860Z,85.78
2018-12-04T02:37:45.858Z,85.68
2018-12-04T02:38:45.847Z,85.36
2018-12-04T02:39:45.863Z,85.02
2018-12-04T02:40:45.821Z,85.68
2018-12-04T02:41:45.830Z,84.85
2018-12-04T02:42:45.837Z,85.36
2018-12-04T02:43:45.787Z,84.85
2018-12-04T02:44:45.781Z,85.16
2018-12-04T02:45:45.811Z,84.95
2018-12-04T02:46:45.755Z,85.68
2018-12-04T02:47:45.767Z,84.95
2018-12-04T02:48:45.767Z,85.06
2018-12-04T02:49:45.797Z,84.95
2018-12-04T02:50:45.717Z,84.81
2018-12-04T02:51:45.699Z,84.64
2018-12-04T02:52:45.704Z,84.95
2018-12-04T02:53:45.675Z,85.26
2018-12-04T02:54:45.711Z,84.95
2018-12-04T02:55:45.653Z,85.06
2018-12-04T02:56:45.636Z,85.26
2018-12-04T02:57:45.631Z,85.06
2018-12-04T02:58:45.622Z,84.75
2018-12-04T02:59:45.623Z,84.03
2018-12-04T03:00:45.622Z,84.34
2018-12-04T03:01:45.619Z,84.75
2018-12-04T03:02:45.573Z,84.03
2018-12-04T03:03:45.585Z,84.23
2018-12-04T03:04:45.571Z,84.13
2018-12-04T03:05:45.567Z,83.78
2018-12-04T03:06:45.541Z,83.72
2018-12-04T03:07:45.706Z,83.72
2018-12-04T03:08:45.513Z,83.92
2018-12-04T03:09:45.505Z,84.03
2018-12-04T03:10:45.486Z,83.31
2018-12-04T03:11:45.474Z,82.69
2018-12-04T03:12:45.465Z,83.51
2018-12-04T03:13:45.478Z,83.51
2018-12-04T03:14:45.446Z,83.51
2018-12-04T03:15:45.437Z,83.20
2018-12-04T03:16:45.444Z,83.31
2018-12-04T03:17:45.414Z,83.83
2018-12-04T03:18:45.421Z,83.83
2018-12-04T03:19:45.406Z,83.72
2018-12-04T03:20:45.401Z,83.51
2018-12-04T03:21:45.396Z,83.51
2018-12-04T03:22:45.448Z,83.83
2018-12-04T03:23:45.364Z,83.92
2018-12-04T03:24:45.365Z,83.92
2018-12-04T03:25:45.324Z,83.55
2018-12-04T03:26:45.368Z,83.31
2018-12-04T03:27:45.326Z,83.20
2018-12-04T03:28:45.295Z,83.72
2018-12-04T03:29:45.280Z,83.41
2018-12-04T03:32:30.252Z,83.55
2018-12-04T03:33:17.952Z,83.45
2018-12-04T03:34:02.127Z,83.25
2018-12-04T03:35:02.083Z,82.83
2018-12-04T03:36:02.122Z,83.55
2018-12-04T03:37:02.054Z,83.35
2018-12-04T03:38:02.095Z,83.76
2018-12-04T03:39:02.091Z,83.86
2018-12-04T03:40:02.053Z,83.65
2018-12-04T03:41:02.039Z,83.35
2018-12-04T03:42:02.052Z,82.83
2018-12-04T03:43:01.989Z,82.93
2018-12-04T03:44:01.977Z,83.25
2018-12-04T03:45:02.002Z,82.73
2018-12-04T03:46:01.986Z,82.93
2018-12-04T03:47:01.952Z,83.14
2018-12-04T03:48:01.957Z,82.93
2018-12-04T03:49:01.958Z,83.04
2018-12-04T03:50:01.940Z,82.63
2018-12-04T03:51:01.925Z,82.93
2018-12-04T03:52:01.923Z,83.00
2018-12-04T03:53:01.923Z,83.20
2018-12-04T03:54:01.891Z,82.32
2018-12-04T03:55:01.882Z,83.04
2018-12-04T03:56:01.849Z,82.32
2018-12-04T03:57:01.832Z,82.83
2018-12-04T03:58:01.831Z,82.83
2018-12-04T03:59:01.823Z,83.04
2018-12-04T04:00:01.847Z,82.42
2018-12-04T04:01:01.825Z,82.01
2018-12-04T04:02:01.781Z,82.21
2018-12-04T04:03:01.769Z,81.91
2018-12-04T04:04:01.764Z,82.67
2018-12-04T04:05:01.747Z,82.83
2018-12-04T04:06:01.769Z,82.87
2018-12-04T04:07:01.740Z,82.32
2018-12-04T04:08:01.715Z,83.07
2018-12-04T04:09:01.714Z,82.21
2018-12-04T04:10:01.725Z,82.46
2018-12-04T04:11:01.723Z,82.77
2018-12-04T04:12:01.678Z,82.46
2018-12-04T04:13:01.689Z,82.35
2018-12-04T04:14:01.649Z,82.97
2018-12-04T04:15:01.661Z,82.25
2018-12-04T04:16:01.653Z,82.25
2018-12-04T04:17:01.622Z,82.35
2018-12-04T04:18:01.621Z,81.95
2018-12-04T04:19:01.594Z,82.25
2018-12-04T04:20:01.703Z,83.07
2018-12-04T04:21:01.571Z,81.95
2018-12-04T04:22:01.561Z,82.50
2018-12-04T04:23:01.550Z,82.40
2018-12-04T04:24:01.547Z,82.05
2018-12-04T04:25:01.536Z,82.19
2018-12-04T04:26:01.554Z,82.40
2018-12-04T04:27:01.510Z,82.25
2018-12-04T04:28:01.512Z,82.40
2018-12-04T04:29:01.489Z,83.32
2018-12-04T04:30:01.539Z,82.81
2018-12-04T04:31:01.466Z,82.09
2018-12-04T04:32:01.449Z,82.54
2018-12-04T04:33:01.437Z,82.84
2018-12-04T04:34:01.463Z,82.33
2018-12-04T04:35:01.467Z,83.36
2018-12-04T04:36:01.431Z,83.22
2018-12-04T04:37:01.596Z,82.70
2018-12-04T04:38:01.455Z,82.23
2018-12-04T04:39:01.985Z,82.70
2018-12-04T04:40:01.390Z,81.88
2018-12-04T04:41:01.376Z,82.29
2018-12-04T04:42:01.362Z,82.84
2018-12-04T04:43:01.406Z,82.64
2018-12-04T04:44:01.323Z,82.54
2018-12-04T04:45:01.308Z,82.74
2018-12-04T04:46:01.292Z,82.84
2018-12-04T04:47:01.286Z,82.43
2018-12-04T04:48:01.330Z,83.36
2018-12-04T04:49:01.274Z,83.36
2018-12-04T04:50:01.244Z,82.74
2018-12-04T04:51:01.297Z,82.12
2018-12-04T04:52:01.223Z,82.12
2018-12-04T04:53:01.209Z,82.33
2018-12-04T04:54:01.202Z,82.43
2018-12-04T04:55:01.478Z,82.43
2018-12-04T04:56:01.179Z,82.54
2018-12-04T04:57:01.171Z,82.43
2018-12-04T04:58:01.170Z,81.96
2018-12-04T04:59:01.143Z,82.57
2018-12-04T05:00:01.136Z,82.47
2018-12-04T05:01:01.146Z,82.57
2018-12-04T05:02:01.126Z,82.47
2018-12-04T05:03:01.097Z,82.06
2018-12-04T05:04:01.105Z,82.16
2018-12-04T05:05:01.092Z,81.96
2018-12-04T05:06:01.147Z,82.68
2018-12-04T05:07:01.106Z,82.57
2018-12-04T05:08:01.079Z,82.47
2018-12-04T05:09:01.032Z,82.57
2018-12-04T05:10:01.072Z,81.75
2018-12-04T05:11:01.049Z,81.44
2018-12-04T05:12:01.048Z,81.96
2018-12-04T05:13:01.063Z,81.96
2018-12-04T05:14:00.990Z,81.75
2018-12-04T05:15:00.997Z,82.37
2018-12-04T05:16:00.989Z,81.96
2018-12-04T05:17:00.988Z,82.26
2018-12-04T05:18:01.167Z,81.65
2018-12-04T05:19:00.952Z,82.06
2018-12-04T05:20:00.906Z,82.20
2018-12-04T05:21:00.919Z,82.40
2018-12-04T05:22:00.922Z,82.40
2018-12-04T05:23:00.966Z,82.30
2018-12-04T05:24:00.885Z,82.26
2018-12-04T05:25:00.882Z,81.79
2018-12-04T05:26:00.931Z,81.89
2018-12-04T05:27:00.852Z,82.20
2018-12-04T05:28:00.858Z,82.51
2018-12-04T05:29:00.879Z,82.20
2018-12-04T05:30:00.826Z,82.10
2018-12-04T05:31:00.828Z,82.51
2018-12-04T05:32:00.826Z,82.30
2018-12-04T05:33:00.799Z,82.10
2018-12-04T05:34:00.845Z,82.61
2018-12-04T05:35:00.784Z,82.34
2018-12-04T05:36:00.728Z,82.20
2018-12-04T05:37:00.746Z,82.20
2018-12-04T05:38:00.764Z,82.20
2018-12-04T05:39:00.761Z,82.10
2018-12-04T05:40:00.759Z,81.79
2018-12-04T05:41:00.722Z,81.89
2018-12-04T05:42:00.687Z,81.37
2018-12-04T05:43:00.690Z,81.93
2018-12-04T05:44:00.711Z,81.89
2018-12-04T05:45:00.679Z,81.82
2018-12-04T05:46:00.635Z,82.20
2018-12-04T05:47:00.642Z,82.34
2018-12-04T05:48:00.615Z,81.79
2018-12-04T05:49:00.670Z,81.93
2018-12-04T05:50:01.270Z,82.03
2018-12-04T05:51:00.624Z,81.51
2018-12-04T05:52:00.576Z,81.10
2018-12-04T05:53:00.566Z,81.58
2018-12-04T05:54:00.644Z,81.41
2018-12-04T05:55:00.559Z,81.82
2018-12-04T05:56:00.527Z,82.24
2018-12-04T05:57:00.552Z,82.14
2018-12-04T05:58:00.519Z,81.93
2018-12-04T05:59:00.540Z,82.24
2018-12-04T06:00:00.490Z,82.59
2018-12-04T06:01:00.462Z,81.96
2018-12-04T06:02:00.472Z,82.24
2018-12-04T06:03:00.472Z,82.24
2018-12-04T06:04:00.462Z,82.14
2018-12-04T06:05:00.417Z,81.56
2018-12-04T06:06:00.443Z,81.93
2018-12-04T06:07:00.398Z,81.35
2018-12-04T06:08:00.391Z,81.10
2018-12-04T06:09:00.373Z,81.62
2018-12-04T06:10:00.392Z,82.03
2018-12-04T06:11:00.352Z,81.35
2018-12-04T06:12:00.362Z,80.90
2018-12-04T06:13:00.337Z,80.79
2018-12-04T06:14:00.325Z,81.72
2018-12-04T06:15:00.386Z,81.10
2018-12-04T06:16:00.311Z,81.00
2018-12-04T06:17:00.314Z,80.93
2018-12-04T06:18:00.301Z,81.41
2018-12-04T06:19:00.289Z,81.04
2018-12-04T06:20:00.387Z,81.14
2018-12-04T06:21:00.585Z,81.00
2018-12-04T06:22:00.232Z,81.35
2018-12-04T06:23:00.250Z,81.04
2018-12-04T06:24:00.239Z,81.14
2018-12-04T06:25:00.224Z,81.04
2018-12-04T06:26:00.219Z,81.04
2018-12-04T06:27:00.201Z,80.73
2018-12-04T06:28:00.224Z,80.69
2018-12-04T06:29:00.180Z,80.62
2018-12-04T06:30:00.150Z,80.90
2018-12-04T06:31:00.208Z,80.90
2018-12-04T06:32:00.151Z,80.93
2018-12-04T06:33:00.172Z,80.93
2018-12-04T06:34:00.130Z,80.18
2018-12-04T06:35:00.125Z,80.62
2018-12-04T06:36:00.134Z,80.48
2018-12-04T06:37:00.121Z,80.52
2018-12-04T06:38:00.085Z,80.69
2018-12-04T06:39:00.086Z,80.52
2018-12-04T06:40:00.065Z,80.73
2018-12-04T06:41:00.076Z,81.24
2018-12-04T06:42:00.067Z,81.14
2018-12-04T06:43:00.032Z,81.04
2018-12-04T06:44:00.000Z,81.35
2018-12-04T06:45:00.004Z,80.83
2018-12-04T06:45:59.992Z,81.24
2018-12-04T06:47:00.007Z,81.35
2018-12-04T06:47:59.952Z,80.97
2018-12-04T06:48:59.946Z,81.07
2018-12-04T06:49:59.929Z,81.04
2018-12-04T06:50:59.916Z,80.83
2018-12-04T06:51:59.913Z,80.83
2018-12-04T06:52:59.924Z,80.76
2018-12-04T06:53:59.916Z,81.18
2018-12-04T06:54:59.879Z,81.70
2018-12-04T06:55:59.863Z,81.18
2018-12-04T06:56:59.877Z,81.07
2018-12-04T06:57:59.852Z,81.07
2018-12-04T06:58:59.833Z,80.97
2018-12-04T06:59:59.825Z,81.04
2018-12-04T07:00:59.829Z,81.18
2018-12-04T07:01:59.827Z,80.97
2018-12-04T07:02:59.818Z,80.87
2018-12-04T07:03:59.786Z,80.97
2018-12-04T07:04:59.801Z,81.76
2018-12-04T07:05:59.789Z,81.07
2018-12-04T07:06:59.813Z,80.97
2018-12-04T07:07:59.776Z,80.87
2018-12-04T07:08:59.787Z,80.76
2018-12-04T07:09:59.720Z,81.49
2018-12-04T07:10:59.736Z,81.49
2018-12-04T07:12:02.512Z,81.70
2018-12-04T07:12:59.724Z,81.90
2018-12-04T07:13:59.676Z,82.00
2018-12-04T07:14:59.683Z,81.49
2018-12-04T07:15:59.687Z,81.59
2018-12-04T07:16:59.676Z,81.59
2018-12-04T07:17:59.917Z,81.90
2018-12-04T07:18:59.641Z,81.59
2018-12-04T07:19:59.625Z,81.59
2018-12-04T07:20:59.600Z,82.00
2018-12-04T07:21:59.583Z,82.21
2018-12-04T07:22:59.597Z,81.38
2018-12-04T07:23:59.624Z,80.97
2018-12-04T07:24:59.547Z,81.07
2018-12-04T07:25:59.538Z,81.04
2018-12-04T07:26:59.565Z,80.97
2018-12-04T07:27:59.539Z,81.07
2018-12-04T07:28:59.530Z,81.59
2018-12-04T07:29:59.524Z,80.87
2018-12-04T07:30:59.482Z,81.49
2018-12-04T07:31:59.475Z,81.38
2018-12-04T07:32:59.459Z,81.76
2018-12-04T07:33:59.463Z,81.49
2018-12-04T07:34:59.469Z,82.00
2018-12-04T07:35:59.468Z,81.80
2018-12-04T07:36:59.443Z,80.97
2018-12-04T07:37:59.453Z,81.18
2018-12-04T07:38:59.631Z,81.38
2018-12-04T07:39:59.404Z,81.38
2018-12-04T07:40:59.377Z,81.70
2018-12-04T07:41:59.376Z,81.49
2018-12-04T07:42:59.353Z,81.18
2018-12-04T07:43:59.372Z,82.00
2018-12-04T07:44:59.332Z,82.10
2018-12-04T07:45:59.335Z,81.38
2018-12-04T07:46:59.309Z,80.97
2018-12-04T07:47:59.315Z,81.28
2018-12-04T07:48:59.315Z,81.18
2018-12-04T07:49:59.302Z,81.28
2018-12-04T07:50:59.272Z,81.80
2018-12-04T07:51:59.256Z,81.38
2018-12-04T07:52:59.252Z,81.38
2018-12-04T07:53:59.236Z,81.18
2018-12-04T07:54:59.281Z,80.97
2018-12-04T07:55:59.265Z,80.87
2018-12-04T07:56:59.206Z,81.70
2018-12-04T07:57:59.226Z,81.49
2018-12-04T07:58:59.237Z,80.66
2018-12-04T07:59:59.231Z,81.59
2018-12-04T08:00:59.203Z,81.38
2018-12-04T08:01:59.194Z,81.28
2018-12-04T08:02:59.163Z,81.38
2018-12-04T08:03:59.151Z,81.70
2018-12-04T08:04:59.146Z,81.49
2018-12-04T08:05:59.139Z,80.97
2018-12-04T08:06:59.136Z,80.97
2018-12-04T08:07:59.138Z,80.97
2018-12-04T08:08:59.111Z,81.07
2018-12-04T08:09:59.141Z,82.00
2018-12-04T08:10:59.115Z,81.59
2018-12-04T08:11:59.067Z,80.93
2018-12-04T08:12:59.084Z,80.76
2018-12-04T08:13:59.043Z,81.70
2018-12-04T08:14:59.032Z,81.07
2018-12-04T08:15:59.057Z,80.97
2018-12-04T08:16:59.041Z,81.07
2018-12-04T08:17:58.968Z,81.07
2018-12-04T08:18:58.990Z,80.87
2018-12-04T08:19:58.956Z,81.38
2018-12-04T08:20:58.966Z,80.87
2018-12-04T08:21:58.960Z,81.18
2018-12-04T08:22:58.936Z,80.97
2018-12-04T08:23:58.915Z,80.93
2018-12-04T08:24:58.935Z,81.14
2018-12-04T08:25:58.887Z,81.18
2018-12-04T08:26:58.901Z,80.76
2018-12-04T08:27:58.868Z,80.11
2018-12-04T08:28:59.089Z,80.93
2018-12-04T08:29:58.857Z,80.93
2018-12-04T08:30:58.842Z,80.15
2018-12-04T08:31:58.824Z,80.66
2018-12-04T08:32:58.837Z,81.18
2018-12-04T08:33:58.837Z,81.07
2018-12-04T08:34:58.853Z,80.97
2018-12-04T08:35:58.837Z,80.87
2018-12-04T08:36:58.784Z,81.24
2018-12-04T08:37:58.799Z,80.35
2018-12-04T08:38:58.756Z,80.73
2018-12-04T08:39:58.781Z,81.28
2018-12-04T08:40:58.754Z,81.07
2018-12-04T08:41:58.739Z,81.04
2018-12-04T08:42:58.720Z,80.93
2018-12-04T08:43:58.965Z,80.83
2018-12-04T08:44:58.735Z,80.62
2018-12-04T08:45:58.694Z,80.62
2018-12-04T08:46:58.665Z,80.32
2018-12-04T08:47:58.653Z,80.62
2018-12-04T08:48:59.857Z,79.69
2018-12-04T08:49:58.694Z,80.32
2018-12-04T08:50:58.646Z,80.42
2018-12-04T08:51:58.636Z,81.04
2018-12-04T08:52:58.690Z,80.42
2018-12-04T08:53:58.618Z,80.62
2018-12-04T08:54:58.571Z,80.42
2018-12-04T08:55:58.560Z,80.32
2018-12-04T08:56:58.573Z,81.04
2018-12-04T08:57:58.550Z,80.93
2018-12-04T08:58:58.570Z,80.73
2018-12-04T08:59:58.543Z,81.10
2018-12-04T09:00:58.530Z,79.97
2018-12-04T09:01:58.584Z,80.58
2018-12-04T09:02:58.509Z,80.58
2018-12-04T09:03:59.345Z,80.58
2018-12-04T09:04:58.480Z,80.58
2018-12-04T09:05:58.471Z,80.58
2018-12-04T09:06:58.565Z,81.21
2018-12-04T09:07:58.583Z,80.38
2018-12-04T09:08:58.455Z,79.66
2018-12-04T09:09:58.436Z,80.07
2018-12-04T09:10:58.452Z,80.18
2018-12-04T09:11:58.407Z,80.38
2018-12-04T09:12:58.422Z,80.79
2018-12-04T09:13:58.396Z,80.69
2018-12-04T09:14:58.370Z,80.18
2018-12-04T09:15:58.345Z,79.76
2018-12-04T09:16:58.380Z,81.31
2018-12-04T09:17:58.373Z,80.18
2018-12-04T09:18:58.328Z,80.69
2018-12-04T09:19:58.354Z,80.18
2018-12-04T09:20:58.359Z,80.28
2018-12-04T09:21:58.277Z,80.79
2018-12-04T09:22:58.323Z,81.10
2018-12-04T09:23:58.371Z,81.00
2018-12-04T09:24:58.251Z,81.21
2018-12-04T09:25:58.286Z,81.21
2018-12-04T09:26:58.293Z,81.10
2018-12-04T09:27:58.280Z,81.10
2018-12-04T09:28:58.226Z,80.79
2018-12-04T09:29:58.268Z,81.31
2018-12-04T09:30:58.211Z,81.27
2018-12-04T09:31:58.197Z,80.69
2018-12-04T09:32:58.164Z,80.90
2018-12-04T09:33:58.147Z,80.76
2018-12-04T09:34:58.171Z,81.07
2018-12-04T09:35:58.193Z,80.96
2018-12-04T09:36:58.136Z,80.55
2018-12-04T09:37:58.115Z,80.96
2018-12-04T09:38:58.110Z,80.96
2018-12-04T09:39:58.110Z,80.04
2018-12-04T09:40:58.085Z,80.44
2018-12-04T09:41:58.099Z,80.96
2018-12-04T09:43:01.729Z,80.62
2018-12-04T09:43:59.052Z,79.93
2018-12-04T09:44:58.014Z,79.62
2018-12-04T09:45:58.003Z,80.41
2018-12-04T09:46:58.030Z,80.44
2018-12-04T09:47:58.095Z,79.79
2018-12-04T09:48:58.077Z,80.14
2018-12-04T09:49:57.998Z,79.58
2018-12-04T09:50:57.978Z,79.69
2018-12-04T09:51:57.945Z,79.58
2018-12-04T09:52:57.955Z,79.48
2018-12-04T09:53:57.973Z,78.34
2018-12-04T09:54:57.944Z,78.45
2018-12-04T09:55:57.999Z,78.97
2018-12-04T09:56:57.918Z,79.17
2018-12-04T09:57:57.874Z,79.17
2018-12-04T09:58:58.084Z,79.07
2018-12-04T09:59:57.864Z,79.48
2018-12-04T10:00:57.880Z,79.38
2018-12-04T10:01:57.859Z,79.69
2018-12-04T10:02:57.819Z,78.34
2018-12-04T10:03:57.832Z,78.66
2018-12-04T10:04:57.848Z,78.86
2018-12-04T10:05:57.815Z,79.34
2018-12-04T10:06:57.803Z,78.31
2018-12-04T10:07:57.800Z,78.52
2018-12-04T10:08:57.753Z,78.21
2018-12-04T10:10:00.604Z,78.34
2018-12-04T10:10:57.758Z,78.31
2018-12-04T10:11:57.719Z,77.80
2018-12-04T10:12:57.734Z,78.21
2018-12-04T10:13:57.711Z,78.11
2018-12-04T10:14:57.699Z,78.07
2018-12-04T10:15:57.719Z,77.97
2018-12-04T10:16:57.667Z,78.00
2018-12-04T10:17:57.650Z,78.72
2018-12-04T10:18:57.656Z,78.17
2018-12-04T10:19:57.658Z,77.86
2018-12-04T10:20:57.644Z,77.69
2018-12-04T10:21:57.607Z,77.76
2018-12-04T10:22:57.614Z,77.25
2018-12-04T10:23:57.618Z,77.86
2018-12-04T10:24:57.573Z,77.35
2018-12-04T10:25:57.585Z,77.55
2018-12-04T10:26:57.572Z,77.86
2018-12-04T10:27:57.582Z,77.35
2018-12-04T10:28:57.554Z,76.83
2018-12-04T10:29:57.520Z,77.14
2018-12-04T10:30:57.505Z,77.14
2018-12-04T10:31:57.568Z,76.93
2018-12-04T10:32:57.492Z,77.45
2018-12-04T10:33:57.497Z,77.86
2018-12-04T10:34:57.461Z,77.04
2018-12-04T10:35:57.463Z,77.14
2018-12-04T10:36:57.482Z,76.59
2018-12-04T10:37:57.439Z,77.76
2018-12-04T10:38:57.430Z,78.07
2018-12-04T10:39:57.408Z,76.93
2018-12-04T10:40:57.425Z,76.90
2018-12-04T10:41:57.426Z,77.25
2018-12-04T10:42:57.376Z,76.32
2018-12-04T10:43:57.351Z,75.90
2018-12-04T10:44:57.454Z,74.88
2018-12-04T10:45:57.353Z,75.29
2018-12-04T10:46:57.322Z,75.81
2018-12-04T10:47:57.335Z,75.39
2018-12-04T10:48:57.319Z,74.88
2018-12-04T10:49:57.291Z,75.60
2018-12-04T10:50:57.269Z,75.70
2018-12-04T10:51:57.298Z,76.21
2018-12-04T10:52:57.259Z,76.28
2018-12-04T10:53:57.251Z,76.83
2018-12-04T10:54:57.282Z,76.39
2018-12-04T10:55:57.259Z,75.46
2018-12-04T10:56:57.215Z,75.97
2018-12-04T10:57:57.215Z,76.07
2018-12-04T10:58:57.181Z,75.77
2018-12-04T10:59:57.186Z,75.56
2018-12-04T11:00:57.169Z,75.35
2018-12-04T11:01:57.149Z,75.56
2018-12-04T11:02:57.178Z,75.46
2018-12-04T11:03:57.149Z,75.67
2018-12-04T11:04:57.124Z,75.56
2018-12-04T11:05:57.131Z,75.46
2018-12-04T11:06:57.112Z,74.63
2018-12-04T11:07:57.092Z,72.99
2018-12-04T11:08:57.119Z,72.78
2018-12-04T11:09:57.076Z,73.09
2018-12-04T11:10:57.059Z,73.30
2018-12-04T11:11:57.037Z,73.40
2018-12-04T11:12:57.028Z,73.81
2018-12-04T11:13:57.021Z,73.91
2018-12-04T11:14:57.050Z,73.36
2018-12-04T11:15:56.993Z,73.78
2018-12-04T11:16:56.983Z,72.27
2018-12-04T11:17:56.996Z,72.16
2018-12-04T11:18:57.011Z,72.24
2018-12-04T11:19:56.945Z,72.64
2018-12-04T11:20:56.968Z,72.85
2018-12-04T11:21:56.952Z,72.03
2018-12-04T11:22:56.911Z,71.72
2018-12-04T11:23:56.901Z,72.03
2018-12-04T11:24:56.913Z,72.47
2018-12-04T11:25:56.921Z,72.85
2018-12-04T11:26:56.874Z,74.08
2018-12-04T11:27:56.917Z,71.92
2018-12-04T11:28:56.901Z,71.82
2018-12-04T11:29:56.852Z,72.13
2018-12-04T11:30:56.843Z,71.72
2018-12-04T11:31:56.875Z,71.92
2018-12-04T11:32:56.856Z,71.00
2018-12-04T11:33:56.843Z,71.10
2018-12-04T11:34:56.786Z,72.03
2018-12-04T11:35:56.848Z,72.13
2018-12-04T11:36:56.837Z,72.24
2018-12-04T11:37:56.768Z,71.31
2018-12-04T11:38:56.767Z,71.48
2018-12-04T11:39:56.743Z,70.79
2018-12-04T11:40:56.726Z,71.51
2018-12-04T11:41:56.790Z,71.00
2018-12-04T11:42:56.748Z,70.66
2018-12-04T11:43:56.721Z,71.17
2018-12-04T11:44:56.714Z,72.09
2018-12-04T11:45:56.676Z,71.07
2018-12-04T11:46:56.695Z,71.17
2018-12-04T11:47:56.655Z,71.69
2018-12-04T11:48:56.616Z,71.07
2018-12-04T11:49:56.662Z,72.17
2018-12-04T11:51:00.180Z,72.00
2018-12-04T11:51:56.602Z,72.09
2018-12-04T11:52:56.611Z,70.45
2018-12-04T11:53:56.593Z,70.35
2018-12-04T11:54:56.570Z,70.76
2018-12-04T11:55:56.607Z,70.21
2018-12-04T11:56:56.553Z,70.35
2018-12-04T11:57:56.556Z,70.94
2018-12-04T11:58:56.547Z,71.24
2018-12-04T11:59:56.518Z,70.94
2018-12-04T12:00:56.520Z,70.52
2018-12-04T12:01:56.466Z,71.37
2018-12-04T12:02:56.475Z,70.73
2018-12-04T12:03:56.466Z,70.83
2018-12-04T12:04:56.464Z,71.14
2018-12-04T12:05:56.520Z,70.94
2018-12-04T12:06:56.448Z,70.42
2018-12-04T12:07:56.510Z,71.66
2018-12-04T12:08:56.390Z,71.45
2018-12-04T12:09:56.421Z,71.14
2018-12-04T12:10:56.371Z,70.62
2018-12-04T12:11:56.389Z,71.66
2018-12-04T12:12:56.355Z,71.24
2018-12-04T12:13:56.364Z,69.80
2018-12-04T12:14:56.350Z,69.80
2018-12-04T12:15:56.335Z,70.42
2018-12-04T12:16:56.347Z,70.52
2018-12-04T12:17:56.288Z,70.94
2018-12-04T12:18:56.301Z,71.34
2018-12-04T12:19:56.266Z,71.96
2018-12-04T12:20:56.252Z,71.14
2018-12-04T12:21:56.301Z,71.24
2018-12-04T12:22:56.249Z,71.14
2018-12-04T12:23:56.271Z,70.83
2018-12-04T12:24:56.233Z,70.01
2018-12-04T12:25:56.226Z,70.73
2018-12-04T12:26:56.199Z,71.24
2018-12-04T12:27:56.194Z,70.52
2018-12-04T12:28:56.170Z,69.60
2018-12-04T12:29:56.167Z,70.83
2018-12-04T12:30:56.160Z,70.32
2018-12-04T12:31:56.181Z,70.21
2018-12-04T12:32:56.148Z,71.24
2018-12-04T12:33:56.113Z,70.01
2018-12-04T12:34:56.098Z,70.21
2018-12-04T12:35:56.089Z,70.94
2018-12-04T12:36:56.378Z,70.11
2018-12-04T12:37:56.077Z,69.49
2018-12-04T12:38:56.068Z,70.21
2018-12-04T12:39:56.042Z,71.34
2018-12-04T12:40:56.048Z,70.73
2018-12-04T12:41:56.043Z,70.62
2018-12-04T12:42:56.070Z,69.18
2018-12-04T12:44:55.991Z,70.01
2018-12-04T12:45:55.976Z,70.11
2018-12-04T12:46:55.969Z,70.01
2018-12-04T12:47:55.965Z,70.32
2018-12-04T12:48:55.963Z,70.73
2018-12-04T12:49:55.925Z,70.01
2018-12-04T12:50:55.936Z,69.60
2018-12-04T12:51:55.937Z,70.01
2018-12-04T12:52:55.922Z,69.56
2018-12-04T12:53:55.921Z,68.95
2018-12-04T12:54:55.873Z,69.05